KOZS

Camdenton Memorial-Lake Regional Airport

Camdenton, Missouri, USA
METAR KOZS 170335Z AUTO 22003KT 10SM CLR 07/01 A3028 RMK AO2
Observed Flight Rules
Oct-17 @ 03:35 UTC (24 minutes ago) Visual Flight Rules
Wind Visibility Clouds
220° at 3 knots 10 miles
  • Clear skies
Temperatures Readings
Current 7°C / 45°F
Dewpoint 1°C / 34°F
Humidity 66%
Altimeter 30.28" Hg
Pressure 1025 hPa
Elevation 324
METAR KOZS 170335Z AUTO 22003KT 10SM CLR 07/01 A3028 RMK AO2
Observed Flight Rules
Oct-17 @ 03:35 UTC
(24 minutes ago)
VFR
Wind Visibility
220° at 3 knots 10 miles
Clouds
  • Clear skies
Temperature Dewpoint
7°C / 45°F 1°C / 34°F
Humidity Altimeter Pressure
66% 30.28" Hg 1025 hPa